Quincy, IL

5:52 PM CDT on August 27, 2016 (GMT -0500)
KB9HGI - N 17th St. | | Change Station

Elev 614 ft 39.95 °N, 91.38 °W | Updated 27 seconds ago

Clear
Clear
86.8 °F
Feels Like 94 °F
N
0.0
Wind Variable Wind from WSW
Gusts 8.0 mph

Today
High -- | Low -- °F
--% Chance of Precip.
Yesterday
High -- | Low -- °F
Precip. -- in
Pressure 29.99 in
Visibility 10.0 miles
Clouds Clear
Heat Index 94 °F
Dew Point 73 °F
Humidity 64%
Rainfall 0.21 in
Snow Depth Not available.
6:29 AM 7:43 PM
Waning Crescent, 21% visible
METAR KUIN 272154Z AUTO 23007KT 10SM CLR 31/23 A3001 RMK AO2 SLP155 T03060228 $
Pressure 29.99 in
Visibility 10.0 miles
Clouds Clear
Heat Index 94 °F
Dew Point 73 °F
Humidity 64%
Rainfall 0.21 in
Snow Depth Not available.
6:29 AM 7:43 PM
Waning Crescent, 21% visible
METAR KUIN 272154Z AUTO 23007KT 10SM CLR 31/23 A3001 RMK AO2 SLP155 T03060228 $

10-Day Weather Forecast

Almanac

Astronomy

Aug. 27, 2016 Rise Set
Actual Time
Civil Twilight
Nautical Twilight
Astronomical Twilight
Moon
Length of Visible Light
Length of Day
Tomorrow will be .
, % of the Moon is Illuminated

Today's Extremes

State Highs State Lows

Community

WunderPhotos

Upload Photos

1,935,458 photos uploaded!

WunderBlog® & News

Nearby

Air Quality

  Air Quality AQ Index Pollutant
Not available.

Snow Depth

Station Depth Elevation

Earthquake Activity

City Distance Mag. Time & Date
Minimum magnitude displayed is 2.5.

Coastal Water Temperatures

Place Temperature

Stations

Nearby Weather Stations

Station Location Temp. Windchill Dew Point Humidity Wind Precip. Elev Updated Type
                   

Watches & Warnings

There are currently no watches in effect.